Time;durP1;ratioP1;P1;durP2;ratioP2;P2;SDS_P1;SDS_P2;PMS_P1;PMS_P2;Temp;Humidity;BMP_temperature;BMP_pressure;BME280_temperature;BME280_humidity;BME280_pressure;Samples;Min_cycle;Max_cycle;Signal;HPM_P1;HPM_P2
2023/09/28 00:00:35;;;;;;;3.55;0.98;;;;;;;19.02;67.94;100532.25;5071465;28;20206;-81
2023/09/28 00:02:49;;;;;;;9.35;1.70;;;;;;;18.86;68.62;100537.72;5071458;28;20198;-80
2023/09/28 00:05:19;;;;;;;5.10;1.60;;;;;;;18.69;67.70;100498.50;5071792;28;20195;-79
2023/09/28 00:07:45;;;;;;;4.57;1.23;;;;;;;18.81;68.56;100527.25;5072034;28;20951;-81
2023/09/28 00:10:15;;;;;;;7.35;1.52;;;;;;;18.90;68.22;100529.78;5070268;28;20730;-80
2023/09/28 00:12:43;;;;;;;4.03;1.30;;;;;;;18.86;68.94;100533.31;5071762;28;20199;-81
2023/09/28 00:15:11;;;;;;;6.38;1.63;;;;;;;18.88;68.32;100536.78;5071747;28;20194;-80
2023/09/28 00:17:38;;;;;;;5.05;1.30;;;;;;;18.67;68.03;100510.75;5071853;28;20195;-81
2023/09/28 00:20:09;;;;;;;6.93;2.08;;;;;;;18.85;69.13;100534.22;5071715;28;20234;-80
2023/09/28 00:22:36;;;;;;;6.80;1.65;;;;;;;18.77;69.65;100529.03;5037445;28;20309;-78
2023/09/28 00:25:09;;;;;;;4.30;1.23;;;;;;;18.77;69.33;100533.41;5071929;28;20205;-79
2023/09/28 00:27:37;;;;;;;5.05;1.30;;;;;;;18.86;68.82;100527.19;5066641;28;20194;-81
2023/09/28 00:30:06;;;;;;;8.48;1.80;;;;;;;18.73;69.97;100526.44;5062748;28;20254;-80
2023/09/28 00:32:33;;;;;;;4.10;1.17;;;;;;;18.76;69.47;100523.81;5071569;28;20202;-81
2023/09/28 00:35:00;;;;;;;4.50;1.30;;;;;;;18.63;69.55;100530.06;5071781;28;20207;-79
2023/09/28 00:37:25;;;;;;;5.88;1.67;;;;;;;18.64;68.48;100530.06;5071321;28;20202;-81
2023/09/28 00:39:54;;;;;;;8.40;1.77;;;;;;;18.52;68.32;100513.53;5071552;28;20211;-78
2023/09/28 00:42:21;;;;;;;6.03;1.80;;;;;;;18.65;68.42;100534.44;5071567;28;20699;-80
2023/09/28 00:44:52;;;;;;;5.10;1.70;;;;;;;18.68;68.18;100531.78;5071940;28;20288;-80
2023/09/28 00:47:18;;;;;;;5.97;1.70;;;;;;;18.62;68.89;100533.59;5071208;28;20199;-79
2023/09/28 00:49:45;;;;;;;8.23;1.75;;;;;;;18.58;69.94;100537.16;5053017;28;20690;-80
2023/09/28 00:52:16;;;;;;;2.97;1.20;;;;;;;18.59;70.44;100533.63;5071717;28;20206;-80
2023/09/28 00:54:43;;;;;;;2.92;1.20;;;;;;;18.55;71.12;100537.19;5071323;28;20666;-80
2023/09/28 00:57:10;;;;;;;3.58;1.20;;;;;;;18.58;69.42;100537.16;5071144;28;20195;-80
2023/09/28 00:59:36;;;;;;;6.70;1.52;;;;;;;18.59;69.81;100539.75;5071494;28;20198;-79
2023/09/28 01:02:03;;;;;;;9.23;1.98;;;;;;;17.97;70.84;100427.47;5034982;28;20214;-79
2023/09/28 01:04:30;;;;;;;2.75;0.95;;;;;;;18.41;70.80;100508.38;5074967;28;20609;-80
2023/09/28 01:06:56;;;;;;;3.60;1.48;;;;;;;18.55;70.92;100526.69;5075281;28;20195;-80
2023/09/28 01:09:24;;;;;;;5.00;2.10;;;;;;;18.50;70.90;100525.81;5075757;28;20635;-81
2023/09/28 01:11:51;;;;;;;3.00;1.20;;;;;;;18.55;70.08;100531.94;5075282;28;20600;-79
2023/09/28 01:14:21;;;;;;;6.45;1.63;;;;;;;18.44;71.68;100505.75;5070676;28;20202;-78
2023/09/28 01:16:48;;;;;;;8.77;1.75;;;;;;;18.59;72.03;100520.47;5075059;28;20252;-79
2023/09/28 01:19:15;;;;;;;6.63;1.52;;;;;;;18.72;67.87;100519.47;5075339;28;20233;-81
2023/09/28 01:21:42;;;;;;;4.78;1.33;;;;;;;18.66;70.26;100517.78;5075164;28;20607;-80
2023/09/28 01:24:10;;;;;;;7.30;2.17;;;;;;;18.78;68.66;100515.03;5075172;28;20209;-79
2023/09/28 01:26:37;;;;;;;2.35;1.08;;;;;;;18.60;69.19;100495.97;5058663;28;20306;-79
2023/09/28 01:29:03;;;;;;;2.88;1.10;;;;;;;18.75;67.33;100517.69;5075044;28;20218;-80
2023/09/28 01:31:31;;;;;;;3.58;1.20;;;;;;;18.77;68.17;100517.66;5075200;28;20616;-81
2023/09/28 01:33:56;;;;;;;4.47;1.30;;;;;;;18.75;70.17;100519.44;5075205;28;20229;-81
2023/09/28 01:36:23;;;;;;;4.55;1.33;;;;;;;18.63;69.57;100494.16;5074342;28;20249;-81
2023/09/28 01:38:56;;;;;;;8.23;1.70;;;;;;;18.82;68.97;100526.38;5074843;28;20198;-79
2023/09/28 01:41:24;;;;;;;8.05;1.98;;;;;;;18.74;70.92;100517.69;5074945;28;20208;-80
2023/09/28 01:43:50;;;;;;;6.88;1.55;;;;;;;18.68;69.97;100520.41;5039165;28;20796;-80
2023/09/28 01:46:17;;;;;;;12.27;2.47;;;;;;;18.65;71.24;100529.19;5073932;28;20221;-79
2023/09/28 01:48:43;;;;;;;6.97;1.60;;;;;;;18.59;72.73;100518.72;5074589;28;20573;-80
2023/09/28 01:51:09;;;;;;;3.70;1.13;;;;;;;18.50;73.35;100520.56;5075003;28;20222;-80
2023/09/28 01:53:35;;;;;;;9.07;1.88;;;;;;;18.53;73.67;100525.81;5074293;28;20190;-79
2023/09/28 01:56:02;;;;;;;6.20;1.73;;;;;;;18.52;73.47;100526.69;5074316;28;20198;-76
2023/09/28 01:58:31;;;;;;;8.77;1.83;;;;;;;18.14;71.98;100451.78;5073865;28;20203;-80
2023/09/28 02:00:57;;;;;;;4.85;1.55;;;;;;;18.58;70.41;100531.91;5073862;28;20663;-78
2023/09/28 02:03:24;;;;;;;4.93;1.65;;;;;;;18.51;71.80;100535.47;5074091;28;20202;-80
2023/09/28 02:05:49;;;;;;;3.45;1.20;;;;;;;18.42;73.28;100527.63;5074405;28;20546;-79
2023/09/28 02:08:16;;;;;;;5.18;1.48;;;;;;;18.33;73.95;100531.22;5074430;28;20222;-79
2023/09/28 02:10:42;;;;;;;3.08;1.33;;;;;;;18.34;73.71;100527.69;5055761;28;20230;-79
2023/09/28 02:13:09;;;;;;;3.03;1.10;;;;;;;18.31;74.17;100528.59;5073605;28;20191;-81
2023/09/28 02:15:37;;;;;;;3.20;1.15;;;;;;;18.39;74.98;100522.41;5070663;28;20194;-79
2023/09/28 02:18:04;;;;;;;6.18;2.38;;;;;;;18.29;75.74;100519.88;5073988;28;20670;-80
2023/09/28 02:20:31;;;;;;;4.68;1.42;;;;;;;18.25;75.90;100523.44;5074079;28;20725;-78
2023/09/28 02:22:58;;;;;;;4.28;1.30;;;;;;;18.27;76.13;100526.00;5074082;28;20203;-80
2023/09/28 02:25:25;;;;;;;6.88;2.03;;;;;;;18.26;76.59;100527.75;5073856;28;20202;-78
2023/09/28 02:27:53;;;;;;;2.45;1.00;;;;;;;18.22;76.64;100528.72;5074166;28;20247;-80
2023/09/28 02:30:20;;;;;;;3.35;1.17;;;;;;;18.18;76.29;100518.25;5073266;28;20256;-80
2023/09/28 02:32:49;;;;;;;3.22;1.08;;;;;;;18.16;77.29;100518.25;5073970;28;20202;-80
2023/09/28 02:35:17;;;;;;;4.00;1.20;;;;;;;18.07;77.93;100523.59;5073868;28;20280;-79
2023/09/28 02:37:44;;;;;;;6.07;1.55;;;;;;;18.06;78.64;100527.09;5073968;28;20202;-80
2023/09/28 02:40:12;;;;;;;5.32;1.40;;;;;;;18.12;80.05;100528.81;5038574;28;20731;-80
2023/09/28 02:42:37;;;;;;;7.10;1.70;;;;;;;18.04;80.82;100528.88;5072946;28;20206;-80
2023/09/28 02:45:11;;;;;;;5.00;1.42;;;;;;;18.05;81.92;100525.34;5073392;28;20207;-79
2023/09/28 02:47:37;;;;;;;6.40;1.63;;;;;;;18.04;83.78;100523.63;5046338;28;20277;-79
2023/09/28 02:50:09;;;;;;;6.28;2.17;;;;;;;18.01;84.70;100502.66;5073582;28;20232;-79
2023/09/28 02:52:35;;;;;;;5.63;1.52;;;;;;;17.98;85.27;100526.25;5038720;28;20191;-79
2023/09/28 02:55:03;;;;;;;3.25;1.25;;;;;;;17.96;85.55;100519.28;5073203;28;20198;-76
2023/09/28 02:57:28;;;;;;;2.08;1.20;;;;;;;17.91;86.69;100524.56;5073586;28;20260;-79
2023/09/28 02:59:55;;;;;;;4.82;1.85;;;;;;;17.86;87.44;100518.50;5073022;28;20203;-81
2023/09/28 03:02:21;;;;;;;3.58;1.27;;;;;;;17.76;89.30;100522.09;5073097;28;20198;-80
2023/09/28 03:04:48;;;;;;;2.63;1.35;;;;;;;17.11;89.24;100418.50;5072986;28;20206;-81
2023/09/28 03:07:15;;;;;;;4.57;1.30;;;;;;;17.78;90.31;100530.81;5086084;28;20198;-76
2023/09/28 03:09:42;;;;;;;3.17;1.38;;;;;;;17.71;90.40;100534.34;5073124;28;20194;-78
2023/09/28 03:12:07;;;;;;;7.88;1.77;;;;;;;17.57;91.15;100509.97;5037192;28;20214;-77
2023/09/28 03:14:34;;;;;;;6.38;1.63;;;;;;;17.65;91.50;100539.63;5033982;28;20670;-80
2023/09/28 03:17:00;;;;;;;4.85;1.30;;;;;;;17.61;91.73;100540.53;5071488;28;20203;-79
2023/09/28 03:19:27;;;;;;;3.75;2.15;;;;;;;17.41;92.36;100526.66;5072817;28;20706;-80
2023/09/28 03:21:53;;;;;;;4.72;1.55;;;;;;;17.44;92.95;100535.38;5072474;28;20203;-78
2023/09/28 03:24:21;;;;;;;4.15;1.33;;;;;;;17.44;93.11;100535.38;5072141;28;20287;-80
2023/09/28 03:26:49;;;;;;;5.95;1.70;;;;;;;17.39;92.15;100526.66;5072092;28;20314;-80
2023/09/28 03:29:15;;;;;;;2.22;1.05;;;;;;;17.34;92.61;100529.28;5086906;28;20202;-80
2023/09/28 03:31:42;;;;;;;4.63;1.50;;;;;;;17.34;92.58;100529.28;5082860;28;20241;-80
2023/09/28 03:34:08;;;;;;;2.63;1.25;;;;;;;17.29;93.01;100531.06;5072643;28;20601;-81
2023/09/28 03:36:35;;;;;;;4.32;1.58;;;;;;;17.28;92.51;100533.69;5072449;28;20198;-81
2023/09/28 03:39:02;;;;;;;4.93;1.33;;;;;;;17.24;91.99;100532.84;5072386;28;20195;-80
2023/09/28 03:41:30;;;;;;;4.85;1.67;;;;;;;17.37;91.12;100532.78;5072614;28;20199;-80
2023/09/28 03:43:57;;;;;;;4.25;1.30;;;;;;;17.29;89.90;100541.56;5072173;28;20700;-80
2023/09/28 03:46:24;;;;;;;3.20;1.40;;;;;;;17.35;88.15;100540.66;5072402;28;20218;-80
2023/09/28 03:48:51;;;;;;;4.78;1.48;;;;;;;17.37;88.20;100535.41;5072275;28;20219;-80
2023/09/28 03:51:17;;;;;;;4.45;1.33;;;;;;;17.38;86.56;100537.13;5072133;28;20223;-79
2023/09/28 03:53:44;;;;;;;5.65;1.95;;;;;;;17.23;87.21;100525.84;5071819;28;20203;-78
2023/09/28 03:56:11;;;;;;;3.97;1.35;;;;;;;17.28;87.35;100544.19;5063426;28;20685;-78
2023/09/28 03:58:39;;;;;;;5.53;2.05;;;;;;;17.27;88.69;100540.69;5071869;28;20198;-79
2023/09/28 04:01:07;;;;;;;4.50;1.35;;;;;;;17.27;88.45;100545.03;5052774;28;20198;-79
2023/09/28 04:03:35;;;;;;;4.72;1.50;;;;;;;17.10;88.47;100531.16;5071752;28;20666;-79
2023/09/28 04:06:01;;;;;;;3.53;1.45;;;;;;;17.17;89.20;100548.59;5071274;28;20226;-79
2023/09/28 04:08:28;;;;;;;3.03;1.13;;;;;;;17.11;88.15;100546.88;5033806;28;20206;-78
2023/09/28 04:10:55;;;;;;;2.55;1.30;;;;;;;17.05;87.79;100546.88;5069785;28;20230;-79
2023/09/28 04:13:22;;;;;;;3.50;1.20;;;;;;;17.04;87.52;100552.16;5071301;28;20663;-80
2023/09/28 04:15:50;;;;;;;4.50;1.65;;;;;;;17.11;87.58;100560.00;5071605;28;20671;-80
2023/09/28 04:18:17;;;;;;;3.70;1.30;;;;;;;17.00;87.80;100553.91;5071108;28;20195;-80
2023/09/28 04:20:43;;;;;;;3.38;1.42;;;;;;;17.01;86.66;100560.03;5070918;28;20187;-79
2023/09/28 04:23:12;;;;;;;3.05;1.23;;;;;;;16.90;86.18;100536.50;5069234;28;20253;-79
2023/09/28 04:25:39;;;;;;;3.25;1.48;;;;;;;17.04;86.00;100560.88;5071264;28;20190;-78
2023/09/28 04:28:06;;;;;;;5.00;1.45;;;;;;;17.12;86.05;100556.47;5070554;28;20205;-78
2023/09/28 04:30:34;;;;;;;3.20;1.20;;;;;;;16.99;85.58;100549.53;5062780;28;20192;-78
2023/09/28 04:33:02;;;;;;;5.72;1.73;;;;;;;17.23;84.74;100565.16;5063511;28;20195;-76
2023/09/28 04:35:29;;;;;;;4.53;1.50;;;;;;;17.19;85.50;100570.44;5071147;28;20286;-80
2023/09/28 04:37:56;;;;;;;4.03;1.42;;;;;;;17.12;84.65;100560.88;5071103;28;20199;-81
2023/09/28 04:40:25;;;;;;;4.00;1.50;;;;;;;17.33;84.53;100580.00;5071822;28;20210;-82
2023/09/28 04:42:52;;;;;;;8.75;1.58;;;;;;;17.41;84.24;100577.31;5071319;28;20214;-78
2023/09/28 04:45:19;;;;;;;7.53;1.70;;;;;;;17.55;84.04;100577.25;5071033;28;20198;-81
2023/09/28 04:47:47;;;;;;;5.75;1.83;;;;;;;17.77;93.33;100581.50;5071467;28;20245;-79
2023/09/28 04:50:16;;;;;;;4.97;1.55;;;;;;;17.89;82.35;100586.69;5071611;28;20277;-72
2023/09/28 04:52:43;;;;;;;6.35;1.73;;;;;;;18.26;83.78;100588.16;5071121;28;20694;-79
2023/09/28 04:55:11;;;;;;;5.65;1.48;;;;;;;18.44;78.86;100592.41;5041053;28;20203;-80
2023/09/28 04:57:38;;;;;;;8.25;2.47;;;;;;;18.47;77.64;100591.50;5081415;28;20266;-78
2023/09/28 05:00:08;;;;;;;13.52;1.60;;;;;;;18.40;78.18;100569.69;5071219;28;20207;-76
2023/09/28 05:02:35;;;;;;;4.43;1.20;;;;;;;18.41;76.19;100581.06;5036066;28;20199;-77
2023/09/28 05:05:03;;;;;;;4.22;1.17;;;;;;;18.56;76.38;100604.56;5061489;28;20210;-74
2023/09/28 05:07:31;;;;;;;5.40;1.42;;;;;;;18.68;75.63;100602.72;5071413;28;20622;-78
2023/09/28 05:09:59;;;;;;;4.03;1.20;;;;;;;18.70;77.18;100616.69;5070942;28;20194;-81
2023/09/28 05:12:25;;;;;;;3.75;1.30;;;;;;;18.59;74.96;100581.75;5071392;28;20819;-79
2023/09/28 05:14:52;;;;;;;8.15;1.50;;;;;;;18.82;74.79;100615.69;5068752;28;20213;-79
2023/09/28 05:17:19;;;;;;;3.70;1.08;;;;;;;18.86;77.74;100617.41;5068084;28;20210;-81
2023/09/28 05:19:46;;;;;;;13.10;2.03;;;;;;;19.07;78.21;100611.94;5061235;28;20283;-76
2023/09/28 05:22:13;;;;;;;7.63;1.80;;;;;;;18.99;74.83;100619.03;5062932;28;20198;-79
2023/09/28 05:24:41;;;;;;;1.80;1.10;;;;;;;19.21;75.61;100622.28;5069770;28;20199;-83
2023/09/28 05:27:08;;;;;;;5.63;1.95;;;;;;;19.18;78.04;100620.56;5070546;28;20203;-75
2023/09/28 05:29:35;;;;;;;5.00;1.30;;;;;;;19.39;75.70;100619.44;5069798;28;20218;-83
2023/09/28 05:32:04;;;;;;;2.53;1.15;;;;;;;19.50;74.70;100619.34;5063929;28;20231;-80
2023/09/28 05:34:31;;;;;;;6.43;2.20;;;;;;;19.58;74.29;100605.22;5051390;28;20206;-81
2023/09/28 05:36:58;;;;;;;7.00;2.45;;;;;;;19.53;70.33;100595.63;5034002;28;20214;-81
2023/09/28 05:39:24;;;;;;;5.57;1.30;;;;;;;19.70;71.85;100627.84;5060358;28;20212;-82
2023/09/28 05:41:53;;;;;;;14.18;2.10;;;;;;;19.77;70.45;100633.00;5066504;28;20202;-79
2023/09/28 05:44:19;;;;;;;6.80;1.73;;;;;;;19.71;68.56;100640.09;5035742;28;20202;-81
2023/09/28 05:46:46;;;;;;;5.32;1.75;;;;;;;19.72;67.75;100639.22;5071291;28;20199;-83
2023/09/28 05:49:14;;;;;;;7.65;2.17;;;;;;;19.71;66.80;100638.34;5042035;28;20257;-74
2023/09/28 05:51:40;;;;;;;6.63;1.70;;;;;;;19.81;67.23;100633.81;5073540;28;20648;-84
2023/09/28 05:54:07;;;;;;;5.85;1.58;;;;;;;19.82;67.81;100640.84;5074925;28;20206;-81
2023/09/28 05:56:34;;;;;;;9.02;1.70;;;;;;;19.81;68.75;100633.81;5071973;28;21292;-80
2023/09/28 05:59:02;;;;;;;7.00;1.48;;;;;;;19.80;68.66;100645.22;5074597;28;20579;-82
2023/09/28 06:01:30;;;;;;;6.18;1.38;;;;;;;19.66;68.88;100645.41;5071286;28;20210;-81
2023/09/28 06:03:57;;;;;;;12.25;2.55;;;;;;;19.58;69.23;100626.25;5074920;28;20233;-81
2023/09/28 06:06:25;;;;;;;5.13;1.40;;;;;;;19.65;69.87;100624.41;5038841;28;20702;-81
2023/09/28 06:08:51;;;;;;;3.83;1.92;;;;;;;19.82;71.59;100647.84;5069106;28;20206;-83
2023/09/28 06:11:19;;;;;;;5.15;1.42;;;;;;;19.73;67.87;100628.66;5066426;28;20225;-82
2023/09/28 06:13:46;;;;;;;5.55;1.45;;;;;;;19.72;67.22;100633.97;5072826;28;20714;-83
2023/09/28 06:16:16;;;;;;;4.32;1.63;;;;;;;19.68;71.65;100655.94;5072976;28;20211;-77
2023/09/28 06:18:44;;;;;;;3.17;1.20;;;;;;;19.70;71.78;100630.47;5072464;28;20308;-81
2023/09/28 06:21:10;;;;;;;3.47;1.13;;;;;;;19.64;71.83;100641.06;5072692;28;20219;-81
2023/09/28 06:23:37;;;;;;;3.55;1.23;;;;;;;19.71;72.36;100659.41;5058317;28;20207;-83
2023/09/28 06:26:04;;;;;;;8.63;1.42;;;;;;;19.70;72.28;100651.50;5073279;28;20215;-83
2023/09/28 06:28:31;;;;;;;4.55;1.52;;;;;;;19.80;71.86;100658.38;5069038;28;20199;-84
2023/09/28 06:30:58;;;;;;;5.57;1.45;;;;;;;19.75;71.76;100660.22;5072215;28;20690;-83
2023/09/28 06:33:27;;;;;;;4.43;1.23;;;;;;;19.91;71.68;100655.59;5064298;28;20225;-81
2023/09/28 06:35:54;;;;;;;8.73;1.95;;;;;;;19.95;71.44;100659.94;5066796;28;20207;-82
2023/09/28 06:38:21;;;;;;;4.85;1.63;;;;;;;20.03;71.74;100660.72;5072768;28;20218;-83
2023/09/28 06:40:49;;;;;;;6.75;1.92;;;;;;;20.15;72.35;100665.81;5034232;28;20207;-83
2023/09/28 06:43:16;;;;;;;5.85;1.70;;;;;;;20.25;72.62;100668.28;5073583;28;20223;-83
2023/09/28 06:45:43;;;;;;;4.10;1.67;;;;;;;20.16;72.81;100668.41;5065173;28;20219;-83
2023/09/28 06:48:10;;;;;;;10.18;1.40;;;;;;;19.80;73.16;100643.47;5067772;28;20195;-83
2023/09/28 06:50:40;;;;;;;2.75;1.15;;;;;;;19.89;73.11;100634.59;5060110;28;20203;-82
2023/09/28 06:53:07;;;;;;;2.65;1.08;;;;;;;19.64;72.87;100618.28;5063371;28;20356;-83
2023/09/28 06:55:35;;;;;;;6.22;1.33;;;;;;;19.91;74.33;100658.25;5056534;28;20565;-84
2023/09/28 06:58:03;;;;;;;5.95;1.35;;;;;;;19.98;74.85;100659.91;5056848;28;20328;-84
2023/09/28 07:00:30;;;;;;;7.13;1.90;;;;;;;20.09;73.31;100663.25;5062196;28;20255;-83
2023/09/28 07:02:57;;;;;;;6.72;1.67;;;;;;;20.25;72.83;100662.16;5059885;28;20204;-83
2023/09/28 07:05:24;;;;;;;5.85;1.88;;;;;;;20.36;70.87;100669.91;5071469;28;20235;-83
2023/09/28 07:07:52;;;;;;;11.75;2.83;;;;;;;20.55;69.90;100666.09;5067981;28;20207;-83
2023/09/28 07:10:19;;;;;;;9.65;2.28;;;;;;;20.51;68.41;100638.06;5071310;28;20244;-82
2023/09/28 07:12:47;;;;;;;5.45;2.60;;;;;;;20.52;66.41;100645.06;5066408;28;20234;-83
2023/09/28 07:15:14;;;;;;;5.63;1.40;;;;;;;20.77;65.27;100672.75;5034793;28;20264;-82
2023/09/28 07:17:41;;;;;;;3.88;1.33;;;;;;;20.90;64.95;100683.97;5058859;28;20200;-83
2023/09/28 07:20:09;;;;;;;3.25;1.52;;;;;;;20.76;64.50;100661.31;5031415;28;20223;-84
2023/09/28 07:22:36;;;;;;;3.08;1.15;;;;;;;20.96;64.82;100684.72;5057156;28;20204;-84
2023/09/28 07:25:06;;;;;;;5.15;1.77;;;;;;;20.97;66.09;100665.38;5030147;28;20281;-83
2023/09/28 07:27:33;;;;;;;2.22;0.90;;;;;;;20.70;65.69;100660.56;5068834;28;20191;-82
2023/09/28 07:30:00;;;;;;;9.52;1.95;;;;;;;20.65;66.72;100675.59;5072233;28;20202;-80
2023/09/28 07:32:29;;;;;;;2.30;1.20;;;;;;;20.76;68.14;100676.28;5072194;28;20276;-83
2023/09/28 07:34:56;;;;;;;6.72;1.38;;;;;;;20.86;68.60;100672.59;5072024;28;20938;-82
2023/09/28 07:37:24;;;;;;;2.85;1.15;;;;;;;21.04;67.31;100684.59;5072210;28;20207;-81
2023/09/28 07:39:51;;;;;;;9.23;2.00;;;;;;;21.15;67.29;100682.66;5072158;28;20290;-83
2023/09/28 07:42:19;;;;;;;7.22;1.80;;;;;;;21.43;65.45;100677.72;5073075;28;20213;-83
2023/09/28 07:44:46;;;;;;;5.78;1.52;;;;;;;21.42;64.47;100673.31;5072479;28;20202;-82
2023/09/28 07:47:13;;;;;;;3.05;1.27;;;;;;;21.19;64.64;100658.81;5072061;28;20605;-83
2023/09/28 07:49:40;;;;;;;4.25;1.45;;;;;;;21.34;65.50;100654.13;5071809;28;20205;-79
2023/09/28 07:52:08;;;;;;;2.50;1.17;;;;;;;21.24;65.45;100648.19;5037797;28;20233;-82
2023/09/28 07:54:37;;;;;;;4.32;1.38;;;;;;;21.50;65.69;100660.84;5072465;28;20230;-82
2023/09/28 07:57:05;;;;;;;7.35;1.48;;;;;;;21.45;64.07;100642.47;5073379;28;20271;-82
2023/09/28 07:59:34;;;;;;;4.22;1.30;;;;;;;21.82;63.87;100663.69;5062354;28;20225;-79
2023/09/28 08:02:01;;;;;;;7.00;1.70;;;;;;;21.62;63.42;100656.19;5070513;28;20326;-83
2023/09/28 08:04:28;;;;;;;2.63;1.05;;;;;;;21.42;64.52;100623.19;5052235;28;20228;-82
2023/09/28 08:06:56;;;;;;;5.93;1.55;;;;;;;21.69;64.24;100664.84;5053961;28;20206;-82
2023/09/28 08:09:23;;;;;;;4.57;1.30;;;;;;;21.81;64.18;100650.50;5037575;28;20269;-83
2023/09/28 08:11:50;;;;;;;10.15;2.45;;;;;;;21.93;63.65;100660.84;5068247;28;20210;-82
2023/09/28 08:14:17;;;;;;;6.03;1.80;;;;;;;22.07;63.20;100659.63;5067829;28;20606;-83
2023/09/28 08:16:45;;;;;;;9.88;1.92;;;;;;;22.32;62.45;100662.59;5070281;28;20195;-81
2023/09/28 08:19:12;;;;;;;3.20;1.10;;;;;;;22.08;62.70;100655.22;5073043;28;20227;-81
2023/09/28 08:21:40;;;;;;;6.90;1.60;;;;;;;22.02;62.49;100656.22;5067895;28;20199;-82
2023/09/28 08:24:08;;;;;;;5.03;1.50;;;;;;;22.28;62.56;100652.13;5065074;28;20744;-82
2023/09/28 08:26:35;;;;;;;3.45;1.15;;;;;;;22.32;61.11;100627.34;5072478;28;20226;-82
2023/09/28 08:29:02;;;;;;;4.07;1.13;;;;;;;22.61;60.68;100646.00;5071533;28;20214;-84
2023/09/28 08:31:30;;;;;;;5.03;1.30;;;;;;;22.75;60.78;100640.41;5071026;28;20207;-80
2023/09/28 08:33:59;;;;;;;2.65;1.33;;;;;;;23.02;58.49;100648.47;5071012;28;20237;-79
2023/09/28 08:36:27;;;;;;;3.83;1.25;;;;;;;23.13;58.83;100646.41;5070590;28;20194;-80
2023/09/28 08:38:54;;;;;;;3.75;1.27;;;;;;;23.19;58.90;100640.94;5071308;28;20199;-78
2023/09/28 08:41:27;;;;;;;2.72;1.13;;;;;;;23.50;58.34;100648.94;5071002;28;20646;-80
2023/09/28 08:44:03;;;;;;;4.18;1.23;;;;;;;23.59;58.01;100642.47;5071180;28;20234;-80
2023/09/28 08:46:32;;;;;;;6.88;1.70;;;;;;;23.66;58.91;100651.97;5071035;28;20217;-81
2023/09/28 08:49:02;;;;;;;4.55;1.52;;;;;;;23.78;58.05;100645.47;5071494;28;20662;-82
2023/09/28 08:51:31;;;;;;;6.90;1.27;;;;;;;23.65;57.91;100650.28;5071058;28;20207;-81
2023/09/28 08:54:03;;;;;;;7.60;1.50;;;;;;;23.43;58.20;100594.44;5071236;28;20239;-80
2023/09/28 08:56:30;;;;;;;5.32;2.35;;;;;;;23.78;58.15;100633.09;5070849;28;20198;-78
2023/09/28 08:58:59;;;;;;;7.20;1.48;;;;;;;23.98;58.01;100638.63;5036015;28;20580;-79
2023/09/28 09:01:28;;;;;;;8.77;1.88;;;;;;;24.05;56.86;100631.34;5065486;28;20215;-78
2023/09/28 09:03:57;;;;;;;4.80;1.65;;;;;;;24.13;56.97;100638.19;5059211;28;20207;-78
2023/09/28 09:06:29;;;;;;;7.93;1.80;;;;;;;24.34;55.49;100643.72;5043531;28;20272;-82
2023/09/28 09:09:00;;;;;;;5.68;1.70;;;;;;;24.30;55.98;100648.25;5071027;28;20268;-81
2023/09/28 09:11:29;;;;;;;4.13;1.48;;;;;;;24.05;57.33;100626.06;5043438;28;20206;-79
2023/09/28 09:13:56;;;;;;;5.55;1.42;;;;;;;24.10;55.83;100637.41;5070793;28;20231;-79
2023/09/28 09:16:23;;;;;;;5.60;1.35;;;;;;;24.10;55.82;100627.66;5070466;28;20225;-78
2023/09/28 09:18:51;;;;;;;6.43;1.92;;;;;;;24.21;55.52;100634.44;5062565;28;20719;-79
2023/09/28 09:21:18;;;;;;;3.13;1.17;;;;;;;24.17;55.19;100634.53;5064186;28;20206;-79
2023/09/28 09:24:01;;;;;;;6.15;1.52;;;;;;;24.43;54.57;100630.19;5071705;28;20211;-79
2023/09/28 09:26:28;;;;;;;4.93;1.40;;;;;;;23.92;54.21;100564.66;5066676;28;20191;-80
2023/09/28 09:28:58;;;;;;;5.45;1.42;;;;;;;24.51;53.90;100629.00;5055019;28;20196;-79
2023/09/28 09:31:26;;;;;;;3.67;1.15;;;;;;;24.47;53.12;100589.38;5054429;28;20249;-79
2023/09/28 09:33:52;;;;;;;6.53;1.60;;;;;;;24.61;52.58;100624.25;5054666;28;20223;-80
2023/09/28 09:36:19;;;;;;;3.40;1.00;;;;;;;24.59;52.44;100615.47;5054084;28;20202;-79
2023/09/28 09:38:50;;;;;;;10.52;1.23;;;;;;;24.92;51.61;100624.97;5054455;28;20206;-78
2023/09/28 09:41:16;;;;;;;4.35;1.38;;;;;;;25.02;49.98;100626.38;5054029;28;20196;-77
2023/09/28 09:43:43;;;;;;;6.30;2.60;;;;;;;25.06;50.75;100614.72;5053727;28;20253;-81
2023/09/28 09:46:10;;;;;;;8.68;2.05;;;;;;;25.24;49.83;100617.63;5053770;28;20196;-80
2023/09/28 09:48:40;;;;;;;7.05;1.75;;;;;;;25.41;49.59;100615.22;5054059;28;20208;-78
2023/09/28 09:51:10;;;;;;;3.30;1.25;;;;;;;25.45;48.57;100616.84;5060444;28;20195;-80
2023/09/28 09:53:39;;;;;;;6.05;1.52;;;;;;;25.43;49.20;100611.59;5021536;28;20250;-80
2023/09/28 09:56:08;;;;;;;5.38;1.35;;;;;;;25.56;48.44;100615.53;5053631;28;20627;-80
2023/09/28 09:58:39;;;;;;;6.43;1.60;;;;;;;25.66;47.86;100605.44;5019203;28;20199;-80
2023/09/28 10:01:12;;;;;;;4.65;1.33;;;;;;;25.90;47.12;100607.13;5054262;28;20232;-81
2023/09/28 10:03:42;;;;;;;6.07;1.40;;;;;;;25.86;46.49;100602.88;5053730;28;20199;-78
2023/09/28 10:06:15;;;;;;;3.78;1.35;;;;;;;25.73;45.25;100596.28;5055059;28;20188;-75
2023/09/28 10:08:42;;;;;;;7.22;1.42;;;;;;;25.77;45.35;100595.25;5054048;28;20204;-76
2023/09/28 10:11:12;;;;;;;5.57;1.63;;;;;;;25.81;45.14;100586.25;5069383;28;20235;-78
2023/09/28 10:13:39;;;;;;;5.10;1.52;;;;;;;25.71;44.11;100592.84;5073635;28;20265;-73
2023/09/28 10:16:09;;;;;;;5.18;1.17;;;;;;;25.64;44.77;100586.91;5071020;28;20198;-73
2023/09/28 10:18:37;;;;;;;5.15;1.45;;;;;;;25.60;45.01;100579.09;5053235;28;20242;-73
2023/09/28 10:21:05;;;;;;;6.07;1.40;;;;;;;25.55;45.96;100578.41;5053304;28;20676;-73
2023/09/28 10:23:31;;;;;;;5.75;1.65;;;;;;;25.73;45.31;100577.69;5018074;28;20663;-74
2023/09/28 10:25:59;;;;;;;4.70;1.40;;;;;;;25.93;44.32;100569.81;5052975;28;20713;-74
2023/09/28 10:28:27;;;;;;;4.03;1.02;;;;;;;26.01;43.76;100575.66;5053277;28;20203;-75
2023/09/28 10:31:09;;;;;;;6.20;1.33;;;;;;;25.77;43.38;100551.88;5053145;28;20241;-74
2023/09/28 10:33:36;;;;;;;8.88;2.13;;;;;;;25.78;44.37;100564.25;5052821;28;20223;-76
2023/09/28 10:36:14;;;;;;;5.03;1.30;;;;;;;26.01;43.98;100557.06;5052210;28;20698;-74
2023/09/28 10:38:42;;;;;;;4.97;1.65;;;;;;;26.10;43.54;100559.34;5073140;28;20235;-74
2023/09/28 10:41:10;;;;;;;5.95;1.75;;;;;;;26.17;42.33;100553.78;5072869;28;20205;-74
2023/09/28 10:43:40;;;;;;;3.20;1.30;;;;;;;26.40;42.67;100559.03;5072767;28;20199;-74
2023/09/28 10:46:08;;;;;;;3.20;1.25;;;;;;;26.20;42.92;100557.22;5072215;28;20256;-76
2023/09/28 10:48:42;;;;;;;4.88;1.30;;;;;;;26.35;43.04;100555.72;5072731;28;20198;-78
2023/09/28 10:51:11;;;;;;;4.50;1.30;;;;;;;26.04;43.02;100513.56;5075124;28;20207;-75
2023/09/28 10:53:38;;;;;;;4.57;1.63;;;;;;;26.15;43.17;100549.38;5073222;28;20671;-75
2023/09/28 10:56:06;;;;;;;4.60;1.23;;;;;;;26.18;43.12;100548.44;5072517;28;20280;-75
2023/09/28 10:58:34;;;;;;;3.45;1.05;;;;;;;25.81;42.04;100485.28;5052495;28;20238;-74
2023/09/28 11:01:06;;;;;;;2.95;1.35;;;;;;;26.30;41.98;100542.59;5052500;28;20218;-76
2023/09/28 11:03:34;;;;;;;5.82;1.33;;;;;;;26.30;40.97;100547.03;5073044;28;20210;-81
2023/09/28 11:06:01;;;;;;;12.52;1.80;;;;;;;26.30;41.62;100544.38;5075321;28;20209;-83
2023/09/28 11:08:27;;;;;;;9.55;1.67;;;;;;;26.31;41.89;100535.47;5073378;28;20207;-78
2023/09/28 11:10:58;;;;;;;5.70;1.42;;;;;;;26.39;41.91;100541.34;5072517;28;20206;-79
2023/09/28 11:13:25;;;;;;;2.88;1.15;;;;;;;26.36;42.47;100533.50;5054281;28;20230;-76
2023/09/28 11:15:52;;;;;;;5.55;1.30;;;;;;;26.40;43.02;100517.34;5018855;28;20200;-78
2023/09/28 11:18:21;;;;;;;3.50;1.40;;;;;;;26.62;42.64;100531.44;5054583;28;20203;-74
2023/09/28 11:20:48;;;;;;;7.15;1.30;;;;;;;26.78;41.84;100536.97;5052076;28;20755;-74
2023/09/28 11:23:15;;;;;;;6.28;1.40;;;;;;;26.50;41.93;100518.69;5052129;28;20207;-75
2023/09/28 11:25:43;;;;;;;7.00;1.80;;;;;;;26.54;41.96;100519.44;5051738;28;20195;-74